createdAt,value
2017-10-30T00:00:10.545Z,97183.69
2017-10-30T00:00:42.208Z,97178.59
2017-10-30T00:01:14.136Z,97184.98
2017-10-30T00:01:46.019Z,97186.23
2017-10-30T00:02:17.662Z,97185.00
2017-10-30T00:02:49.985Z,97188.83
2017-10-30T00:03:21.639Z,97186.33
2017-10-30T00:03:53.579Z,97182.95
2017-10-30T00:04:25.237Z,97186.38
2017-10-30T00:04:56.881Z,97191.07
2017-10-30T00:05:28.530Z,97187.30
2017-10-30T00:06:00.182Z,97192.82
2017-10-30T00:06:31.828Z,97191.14
2017-10-30T00:07:03.603Z,97185.69
2017-10-30T00:07:35.377Z,97185.27
2017-10-30T00:08:07.328Z,97192.51
2017-10-30T00:08:38.978Z,97192.11
2017-10-30T00:09:10.674Z,97189.99
2017-10-30T00:09:42.560Z,97190.48
2017-10-30T00:10:14.444Z,97189.99
2017-10-30T00:10:46.098Z,97188.71
2017-10-30T00:11:17.749Z,97191.76
2017-10-30T00:11:49.433Z,97189.19
2017-10-30T00:12:21.413Z,97194.33
2017-10-30T00:12:53.070Z,97195.59
2017-10-30T00:13:24.720Z,97187.52
2017-10-30T00:13:56.652Z,97190.94
2017-10-30T00:14:28.568Z,97193.05
2017-10-30T00:15:00.214Z,97197.32
2017-10-30T00:15:31.861Z,97192.27
2017-10-30T00:16:03.509Z,97196.09
2017-10-30T00:16:35.158Z,97199.09
2017-10-30T00:17:06.806Z,97197.83
2017-10-30T00:17:38.502Z,97195.77
2017-10-30T00:18:10.366Z,97201.26
2017-10-30T00:18:42.244Z,97206.37
2017-10-30T00:19:13.957Z,97197.89
2017-10-30T00:19:45.906Z,97202.14
2017-10-30T00:20:17.558Z,97198.77
2017-10-30T00:20:52.926Z,97196.22
2017-10-30T00:21:24.577Z,97207.27
2017-10-30T00:21:56.222Z,97212.38
2017-10-30T00:22:28.107Z,97202.61
2017-10-30T00:23:00.356Z,97210.70
2017-10-30T00:23:32.280Z,97210.28
2017-10-30T00:24:03.953Z,97212.42
2017-10-30T00:24:35.641Z,97218.85
2017-10-30T00:25:07.290Z,97218.02
2017-10-30T00:25:38.937Z,97214.62
2017-10-30T00:26:10.586Z,97218.89
2017-10-30T00:26:42.238Z,97222.77
2017-10-30T00:27:13.885Z,97225.34
2017-10-30T00:27:45.758Z,97218.47
2017-10-30T00:28:17.409Z,97223.16
2017-10-30T00:28:49.054Z,97220.23
2017-10-30T00:29:20.882Z,97225.76
2017-10-30T00:29:52.638Z,97223.16
2017-10-30T00:30:24.285Z,97225.76
2017-10-30T00:30:55.930Z,97226.63
2017-10-30T00:31:27.578Z,97221.08
2017-10-30T00:31:59.222Z,97227.03
2017-10-30T00:32:30.882Z,97223.64
2017-10-30T00:33:02.529Z,97220.67
2017-10-30T00:33:34.324Z,97228.77
2017-10-30T00:34:06.022Z,97226.63
2017-10-30T00:34:37.669Z,97227.08
2017-10-30T00:35:09.318Z,97226.23
2017-10-30T00:35:40.973Z,97235.59
2017-10-30T00:36:12.641Z,97225.36
2017-10-30T00:36:44.517Z,97232.60
2017-10-30T00:37:16.162Z,97240.70
2017-10-30T00:37:47.805Z,97227.56
2017-10-30T00:38:19.457Z,97231.81
2017-10-30T00:38:51.105Z,97228.84
2017-10-30T00:39:23.108Z,97232.67
2017-10-30T00:39:54.945Z,97237.36
2017-10-30T00:40:26.699Z,97238.25
2017-10-30T00:40:58.529Z,97242.47
2017-10-30T00:41:30.291Z,97233.14
2017-10-30T00:42:01.945Z,97234.44
2017-10-30T00:42:33.596Z,97240.81
2017-10-30T00:43:05.245Z,97237.88
2017-10-30T00:43:36.894Z,97237.48
2017-10-30T00:44:08.542Z,97240.91
2017-10-30T00:44:40.369Z,97232.77
2017-10-30T00:45:12.021Z,97229.36
2017-10-30T00:45:43.673Z,97238.34
2017-10-30T00:46:15.318Z,97236.23
2017-10-30T00:46:46.969Z,97237.52
2017-10-30T00:47:18.662Z,97237.44
2017-10-30T00:47:50.310Z,97238.12
2017-10-30T00:48:21.954Z,97242.36
2017-10-30T00:48:53.645Z,97246.64
2017-10-30T00:49:25.533Z,97237.78
2017-10-30T00:49:57.180Z,97240.84
2017-10-30T00:50:28.827Z,97231.98
2017-10-30T00:51:00.477Z,97239.64
2017-10-30T00:51:32.124Z,97237.96
2017-10-30T00:52:03.767Z,97242.66
2017-10-30T00:52:35.413Z,97245.25
2017-10-30T00:53:07.061Z,97242.73
2017-10-30T00:53:38.702Z,97245.28
2017-10-30T00:54:10.354Z,97246.56
2017-10-30T00:54:42.025Z,97245.27
2017-10-30T00:55:13.901Z,97244.43
2017-10-30T00:55:45.554Z,97246.14
2017-10-30T00:56:17.202Z,97244.85
2017-10-30T00:56:48.849Z,97247.84
2017-10-30T00:57:20.503Z,97233.88
2017-10-30T00:57:52.310Z,97242.78
2017-10-30T00:58:24.059Z,97243.22
2017-10-30T00:58:55.709Z,97247.91
2017-10-30T00:59:27.358Z,97241.61
2017-10-30T00:59:59.065Z,97253.95
2017-10-30T01:01:14.557Z,97243.69
2017-10-30T01:01:46.507Z,97246.30
2017-10-30T01:02:18.158Z,97251.40
2017-10-30T01:02:49.811Z,97250.56
2017-10-30T01:03:21.470Z,97246.33
2017-10-30T01:03:53.117Z,97255.31
2017-10-30T01:04:24.765Z,97251.44
2017-10-30T01:04:56.417Z,97250.16
2017-10-30T01:05:28.066Z,97250.58
2017-10-30T01:05:59.769Z,97248.46
2017-10-30T01:06:31.418Z,97245.55
2017-10-30T01:07:03.062Z,97245.53
2017-10-30T01:07:34.714Z,97249.80
2017-10-30T01:08:06.361Z,97243.02
2017-10-30T01:08:38.013Z,97248.53
2017-10-30T01:09:09.800Z,97248.13
2017-10-30T01:09:41.449Z,97257.92
2017-10-30T01:10:13.097Z,97243.48
2017-10-30T01:10:44.745Z,97240.98
2017-10-30T01:11:16.641Z,97242.24
2017-10-30T01:11:48.315Z,97244.38
2017-10-30T01:12:19.965Z,97246.08
2017-10-30T01:12:51.610Z,97244.39
2017-10-30T01:13:23.253Z,97254.22
2017-10-30T01:13:54.898Z,97249.50
2017-10-30T01:14:26.545Z,97251.68
2017-10-30T01:14:58.190Z,97247.85
2017-10-30T01:15:29.838Z,97250.83
2017-10-30T01:16:01.482Z,97256.30
2017-10-30T01:16:33.162Z,97256.35
2017-10-30T01:17:05.043Z,97253.75
2017-10-30T01:17:36.706Z,97259.33
2017-10-30T01:18:08.361Z,97259.28
2017-10-30T01:18:40.014Z,97254.59
2017-10-30T01:19:11.817Z,97258.82
2017-10-30T01:19:43.466Z,97251.18
2017-10-30T01:20:15.109Z,97259.68
2017-10-30T01:20:46.797Z,97253.70
2017-10-30T01:21:18.441Z,97254.92
2017-10-30T01:21:50.634Z,97261.73
2017-10-30T01:22:22.383Z,97261.28
2017-10-30T01:22:54.257Z,97264.63
2017-10-30T01:23:25.971Z,97257.78
2017-10-30T01:23:57.923Z,97262.83
2017-10-30T01:24:29.752Z,97261.52
2017-10-30T01:25:01.441Z,97257.63
2017-10-30T01:25:33.086Z,97263.98
2017-10-30T01:26:04.734Z,97264.83
2017-10-30T01:26:36.381Z,97265.17
2017-10-30T01:27:08.080Z,97265.16
2017-10-30T01:27:39.917Z,97267.23
2017-10-30T01:28:11.673Z,97268.06
2017-10-30T01:28:43.321Z,97263.31
2017-10-30T01:29:15.155Z,97256.07
2017-10-30T01:29:46.910Z,97267.49
2017-10-30T01:30:18.760Z,97263.66
2017-10-30T01:30:50.593Z,97253.05
2017-10-30T01:31:22.446Z,97263.14
2017-10-30T01:31:54.331Z,97260.16
2017-10-30T01:32:26.038Z,97259.71
2017-10-30T01:32:57.690Z,97258.86
2017-10-30T01:33:29.334Z,97258.88
2017-10-30T01:34:00.986Z,97260.08
2017-10-30T01:34:32.629Z,97257.52
2017-10-30T01:35:04.274Z,97261.68
2017-10-30T01:35:36.147Z,97265.51
2017-10-30T01:36:07.838Z,97259.56
2017-10-30T01:36:39.492Z,97265.09
2017-10-30T01:37:11.317Z,97264.66
2017-10-30T01:37:43.071Z,97266.33
2017-10-30T01:38:14.724Z,97268.84
2017-10-30T01:38:46.611Z,97270.09
2017-10-30T01:39:18.258Z,97269.67
2017-10-30T01:39:49.905Z,97272.25
2017-10-30T01:40:21.558Z,97264.59
2017-10-30T01:40:53.246Z,97269.30
2017-10-30T01:41:24.889Z,97267.61
2017-10-30T01:41:56.538Z,97273.16
2017-10-30T01:42:28.182Z,97274.43
2017-10-30T01:42:59.832Z,97273.14
2017-10-30T01:43:31.490Z,97274.85
2017-10-30T01:44:03.389Z,97268.03
2017-10-30T01:44:35.342Z,97279.95
2017-10-30T01:45:06.990Z,97284.66
2017-10-30T01:45:38.641Z,97274.89
2017-10-30T01:46:10.514Z,97273.61
2017-10-30T01:46:42.169Z,97275.38
2017-10-30T01:47:13.814Z,97274.55
2017-10-30T01:47:45.513Z,97280.58
2017-10-30T01:48:17.154Z,97279.74
2017-10-30T01:48:48.798Z,97274.23
2017-10-30T01:49:20.446Z,97278.97
2017-10-30T01:49:52.101Z,97273.89
2017-10-30T01:50:23.742Z,97273.09
2017-10-30T01:50:55.385Z,97280.77
2017-10-30T01:51:27.033Z,97267.58
2017-10-30T01:51:58.681Z,97276.94
2017-10-30T01:52:30.334Z,97278.21
2017-10-30T01:53:02.026Z,97276.12
2017-10-30T01:53:33.669Z,97277.84
2017-10-30T01:54:05.318Z,97274.05
2017-10-30T01:54:36.961Z,97271.55
2017-10-30T01:55:08.605Z,97269.86
2017-10-30T01:55:40.249Z,97280.08
2017-10-30T01:56:11.909Z,97272.86
2017-10-30T01:56:43.551Z,97274.14
2017-10-30T01:57:15.217Z,97273.71
2017-10-30T01:57:46.905Z,97277.17
2017-10-30T01:58:18.546Z,97274.20
2017-10-30T01:58:50.233Z,97272.48
2017-10-30T01:59:22.124Z,97275.47
2017-10-30T01:59:53.873Z,97273.80
2017-10-30T02:00:25.771Z,97271.67
2017-10-30T02:00:57.417Z,97269.17
2017-10-30T02:01:29.070Z,97269.62
2017-10-30T02:02:00.725Z,97268.37
2017-10-30T02:02:32.387Z,97275.61
2017-10-30T02:03:04.263Z,97274.39
2017-10-30T02:03:35.981Z,97276.97
2017-10-30T02:04:07.930Z,97276.62
2017-10-30T02:04:39.880Z,97273.66
2017-10-30T02:05:11.530Z,97273.70
2017-10-30T02:05:43.214Z,97269.88
2017-10-30T02:06:14.861Z,97273.64
2017-10-30T02:06:46.554Z,97265.13
2017-10-30T02:07:18.202Z,97271.00
2017-10-30T02:07:49.850Z,97271.44
2017-10-30T02:08:21.500Z,97271.07
2017-10-30T02:08:53.145Z,97273.66
2017-10-30T02:09:24.789Z,97275.75
2017-10-30T02:09:56.445Z,97279.58
2017-10-30T02:10:28.094Z,97275.35
2017-10-30T02:10:59.758Z,97276.20
2017-10-30T02:11:31.445Z,97280.87
2017-10-30T02:12:03.089Z,97271.09
2017-10-30T02:12:34.738Z,97276.20
2017-10-30T02:13:06.386Z,97277.11
2017-10-30T02:13:38.026Z,97278.83
2017-10-30T02:14:09.674Z,97286.05
2017-10-30T02:14:41.317Z,97280.52
2017-10-30T02:15:12.966Z,97279.27
2017-10-30T02:15:44.613Z,97278.47
2017-10-30T02:16:16.266Z,97276.36
2017-10-30T02:16:48.258Z,97281.88
2017-10-30T02:17:20.209Z,97281.05
2017-10-30T02:17:51.858Z,97281.05
2017-10-30T02:18:23.505Z,97281.54
2017-10-30T02:18:55.155Z,97278.94
2017-10-30T02:19:26.806Z,97285.75
2017-10-30T02:19:58.449Z,97284.48
2017-10-30T02:20:30.089Z,97282.83
2017-10-30T02:21:01.738Z,97289.63
2017-10-30T02:21:33.650Z,97279.37
2017-10-30T02:22:05.306Z,97282.83
2017-10-30T02:22:36.958Z,97287.08
2017-10-30T02:23:08.601Z,97285.39
2017-10-30T02:23:40.241Z,97288.36
2017-10-30T02:24:11.890Z,97282.84
2017-10-30T02:24:43.533Z,97282.86
2017-10-30T02:25:15.450Z,97292.22
2017-10-30T02:25:47.137Z,97290.93
2017-10-30T02:26:18.789Z,97288.81
2017-10-30T02:26:50.683Z,97296.95
2017-10-30T02:27:22.337Z,97293.50
2017-10-30T02:27:53.985Z,97288.39
2017-10-30T02:28:25.629Z,97288.81
2017-10-30T02:28:57.274Z,97293.14
2017-10-30T02:29:28.961Z,97297.41
2017-10-30T02:30:00.738Z,97286.78
2017-10-30T02:30:32.493Z,97296.56
2017-10-30T02:31:04.153Z,97285.94
2017-10-30T02:31:35.802Z,97296.13
2017-10-30T02:32:07.450Z,97294.00
2017-10-30T02:32:39.104Z,97294.87
2017-10-30T02:33:10.758Z,97283.86
2017-10-30T02:33:42.409Z,97300.05
2017-10-30T02:34:14.284Z,97295.00
2017-10-30T02:34:45.944Z,97293.33
2017-10-30T02:35:17.589Z,97298.00
2017-10-30T02:35:49.238Z,97295.00
2017-10-30T02:36:21.117Z,97296.21
2017-10-30T02:36:52.800Z,97301.23
2017-10-30T02:37:24.450Z,97304.19
2017-10-30T02:37:56.097Z,97303.33
2017-10-30T02:38:27.741Z,97304.98
2017-10-30T02:38:59.386Z,97298.18
2017-10-30T02:39:31.030Z,97300.28
2017-10-30T02:40:02.683Z,97300.28
2017-10-30T02:40:34.325Z,97299.00
2017-10-30T02:41:05.969Z,97304.98
2017-10-30T02:41:37.778Z,97304.98
2017-10-30T02:42:09.527Z,97301.20
2017-10-30T02:42:41.182Z,97295.67
2017-10-30T02:43:12.825Z,97296.55
2017-10-30T02:43:44.474Z,97298.25
2017-10-30T02:44:16.118Z,97294.44
2017-10-30T02:44:47.765Z,97301.23
2017-10-30T02:45:19.578Z,97299.12
2017-10-30T02:45:51.327Z,97306.34
2017-10-30T02:46:23.162Z,97300.81
2017-10-30T02:46:54.854Z,97303.34
2017-10-30T02:47:26.502Z,97298.70
2017-10-30T02:47:58.150Z,97308.95
2017-10-30T02:48:29.806Z,97302.14
2017-10-30T02:49:01.483Z,97299.62
2017-10-30T02:49:33.129Z,97304.30
2017-10-30T02:50:04.814Z,97300.95
2017-10-30T02:50:36.461Z,97304.78
2017-10-30T02:51:08.110Z,97302.66
2017-10-30T02:51:39.753Z,97306.50
2017-10-30T02:52:11.397Z,97309.48
2017-10-30T02:52:43.286Z,97312.89
2017-10-30T02:53:15.168Z,97318.02
2017-10-30T02:53:46.814Z,97315.47
2017-10-30T02:54:18.461Z,97315.08
2017-10-30T02:54:50.111Z,97311.63
2017-10-30T02:55:21.814Z,97312.10
2017-10-30T02:55:53.461Z,97314.25
2017-10-30T02:56:25.106Z,97312.13
2017-10-30T02:56:56.757Z,97309.58
2017-10-30T02:57:28.405Z,97309.20
2017-10-30T02:58:00.045Z,97308.32
2017-10-30T02:58:31.694Z,97311.70
2017-10-30T02:59:03.341Z,97315.95
2017-10-30T02:59:34.990Z,97311.28
2017-10-30T03:00:06.638Z,97316.80
2017-10-30T03:00:38.529Z,97317.64
2017-10-30T03:01:10.182Z,97311.30
2017-10-30T03:01:41.834Z,97312.62
2017-10-30T03:02:13.496Z,97315.17
2017-10-30T03:02:45.145Z,97315.59
2017-10-30T03:03:16.793Z,97318.53
2017-10-30T03:03:48.579Z,97312.20
2017-10-30T03:04:20.329Z,97311.80
2017-10-30T03:04:52.018Z,97308.41
2017-10-30T03:05:23.678Z,97313.07
2017-10-30T03:05:55.564Z,97319.00
2017-10-30T03:06:27.213Z,97326.19
2017-10-30T03:06:58.857Z,97329.16
2017-10-30T03:07:30.506Z,97324.91
2017-10-30T03:08:02.153Z,97321.59
2017-10-30T03:08:33.838Z,97322.41
2017-10-30T03:09:05.722Z,97325.81
2017-10-30T03:09:37.569Z,97318.16
2017-10-30T03:10:09.312Z,97322.41
2017-10-30T03:10:40.962Z,97324.91
2017-10-30T03:11:12.609Z,97323.68
2017-10-30T03:11:44.253Z,97326.66
2017-10-30T03:12:15.902Z,97319.80
2017-10-30T03:12:47.553Z,97325.80
2017-10-30T03:13:19.197Z,97316.82
2017-10-30T03:13:50.841Z,97329.16
2017-10-30T03:14:22.489Z,97329.14
2017-10-30T03:14:54.138Z,97328.27
2017-10-30T03:15:26.038Z,97323.95
2017-10-30T03:15:57.941Z,97327.84
2017-10-30T03:16:29.590Z,97326.56
2017-10-30T03:17:01.267Z,97321.83
2017-10-30T03:17:32.961Z,97323.51
2017-10-30T03:18:04.614Z,97325.58
2017-10-30T03:18:36.258Z,97326.00
2017-10-30T03:19:07.902Z,97322.14
2017-10-30T03:19:39.789Z,97328.94
2017-10-30T03:20:11.453Z,97328.45
2017-10-30T03:20:43.097Z,97329.30
2017-10-30T03:21:14.745Z,97330.59
2017-10-30T03:21:46.394Z,97317.37
2017-10-30T03:22:18.038Z,97327.15
2017-10-30T03:22:50.249Z,97329.66
2017-10-30T03:23:22.203Z,97327.49
2017-10-30T03:23:54.153Z,97329.56
2017-10-30T03:24:25.801Z,97327.42
2017-10-30T03:24:57.446Z,97326.55
2017-10-30T03:25:29.089Z,97332.08
2017-10-30T03:26:00.732Z,97331.59
2017-10-30T03:26:32.377Z,97337.14
2017-10-30T03:27:04.219Z,97331.56
2017-10-30T03:27:35.874Z,97334.04
2017-10-30T03:28:07.517Z,97332.68
2017-10-30T03:28:39.165Z,97330.05
2017-10-30T03:29:10.878Z,97339.00
2017-10-30T03:29:42.828Z,97341.47
2017-10-30T03:30:14.491Z,97337.17
2017-10-30T03:30:46.150Z,97337.55
2017-10-30T03:31:17.814Z,97338.81
2017-10-30T03:31:49.514Z,97339.24
2017-10-30T03:32:21.162Z,97343.09
2017-10-30T03:32:52.805Z,97342.23
2017-10-30T03:33:24.445Z,97343.55
2017-10-30T03:33:56.090Z,97344.41
2017-10-30T03:34:27.734Z,97351.66
2017-10-30T03:34:59.378Z,97358.45
2017-10-30T03:35:31.021Z,97347.84
2017-10-30T03:36:02.670Z,97358.05
2017-10-30T03:36:34.314Z,97357.21
2017-10-30T03:37:06.121Z,97350.02
2017-10-30T03:37:37.770Z,97361.95
2017-10-30T03:38:09.457Z,97355.59
2017-10-30T03:38:41.354Z,97350.53
2017-10-30T03:39:13.183Z,97348.44
2017-10-30T03:39:44.945Z,97355.25
2017-10-30T03:40:16.780Z,97362.56
2017-10-30T03:40:48.535Z,97357.48
2017-10-30T03:41:20.489Z,97361.73
2017-10-30T03:41:52.138Z,97371.58
2017-10-30T03:42:23.825Z,97355.86
2017-10-30T03:42:55.718Z,97360.59
2017-10-30T03:43:27.373Z,97362.34
2017-10-30T03:43:59.021Z,97353.45
2017-10-30T03:44:30.950Z,97360.70
2017-10-30T03:45:02.978Z,97361.61
2017-10-30T03:45:34.849Z,97363.75
2017-10-30T03:46:06.498Z,97364.19
2017-10-30T03:46:38.149Z,97368.89
2017-10-30T03:47:09.793Z,97372.78
2017-10-30T03:47:41.438Z,97363.41
2017-10-30T03:48:13.085Z,97369.81
2017-10-30T03:48:44.725Z,97368.52
2017-10-30T03:49:16.373Z,97367.69
2017-10-30T03:49:48.252Z,97371.15
2017-10-30T03:50:19.934Z,97364.34
2017-10-30T03:50:51.882Z,97374.99
2017-10-30T03:51:23.537Z,97368.61
2017-10-30T03:51:55.190Z,97372.44
2017-10-30T03:52:26.835Z,97369.47
2017-10-30T03:52:58.485Z,97371.60
2017-10-30T03:53:30.366Z,97369.53
2017-10-30T03:54:02.038Z,97363.94
2017-10-30T03:54:33.722Z,97369.53
2017-10-30T03:55:05.587Z,97377.13
2017-10-30T03:55:37.235Z,97384.78
2017-10-30T03:56:08.916Z,97384.42
2017-10-30T03:56:40.569Z,97378.84
2017-10-30T03:57:12.221Z,97393.36
2017-10-30T03:57:43.869Z,97392.09
2017-10-30T03:58:15.509Z,97394.66
2017-10-30T03:58:47.155Z,97387.06
2017-10-30T03:59:18.798Z,97387.50
2017-10-30T03:59:50.441Z,97379.84
2017-10-30T04:00:22.090Z,97385.80
2017-10-30T04:00:53.734Z,97390.06
2017-10-30T04:01:25.381Z,97382.89
2017-10-30T04:01:57.025Z,97386.72
2017-10-30T04:02:28.677Z,97387.59
2017-10-30T04:03:00.321Z,97390.58
2017-10-30T04:03:31.970Z,97394.39
2017-10-30T04:04:03.614Z,97394.87
2017-10-30T04:04:35.493Z,97388.92
2017-10-30T04:05:07.182Z,97391.50
2017-10-30T04:05:38.833Z,97394.96
2017-10-30T04:06:10.477Z,97389.91
2017-10-30T04:06:42.253Z,97390.73
2017-10-30T04:07:14.011Z,97389.44
2017-10-30T04:07:45.664Z,97394.55
2017-10-30T04:08:17.313Z,97389.86
2017-10-30T04:08:48.956Z,97395.77
2017-10-30T04:09:20.606Z,97391.07
2017-10-30T04:09:52.249Z,97393.20
2017-10-30T04:10:23.902Z,97394.50
2017-10-30T04:10:55.549Z,97387.68
2017-10-30T04:11:27.193Z,97383.91
2017-10-30T04:11:58.841Z,97384.34
2017-10-30T04:12:30.736Z,97387.74
2017-10-30T04:13:02.385Z,97389.89
2017-10-30T04:13:34.042Z,97387.34
2017-10-30T04:14:05.687Z,97392.42
2017-10-30T04:14:37.807Z,97395.81
2017-10-30T04:15:09.502Z,97392.78
2017-10-30T04:15:41.145Z,97389.44
2017-10-30T04:16:12.793Z,97401.36
2017-10-30T04:16:44.442Z,97394.15
2017-10-30T04:17:16.125Z,97394.55
2017-10-30T04:17:47.777Z,97389.89
2017-10-30T04:18:19.425Z,97397.52
2017-10-30T04:18:51.070Z,97392.44
2017-10-30T04:19:22.718Z,97404.77
2017-10-30T04:19:54.362Z,97402.65
2017-10-30T04:20:26.237Z,97391.59
2017-10-30T04:20:57.881Z,97396.70
2017-10-30T04:21:29.535Z,97404.33
2017-10-30T04:22:01.216Z,97398.82
2017-10-30T04:22:32.911Z,97405.63
2017-10-30T04:23:04.754Z,97401.43
2017-10-30T04:23:36.398Z,97405.68
2017-10-30T04:24:08.041Z,97408.26
2017-10-30T04:24:39.690Z,97398.53
2017-10-30T04:25:11.371Z,97404.49
2017-10-30T04:25:43.320Z,97397.27
2017-10-30T04:26:15.144Z,97399.83
2017-10-30T04:26:46.829Z,97395.16
2017-10-30T04:27:18.470Z,97393.04
2017-10-30T04:27:50.118Z,97401.16
2017-10-30T04:28:21.769Z,97404.56
2017-10-30T04:28:53.416Z,97412.16
2017-10-30T04:29:25.058Z,97402.81
2017-10-30T04:29:56.761Z,97405.42
2017-10-30T04:30:28.413Z,97407.07
2017-10-30T04:31:00.101Z,97411.75
2017-10-30T04:31:31.879Z,97413.03
2017-10-30T04:32:03.637Z,97412.23
2017-10-30T04:32:35.290Z,97413.52
2017-10-30T04:33:06.938Z,97411.41
2017-10-30T04:33:38.586Z,97416.52
2017-10-30T04:34:10.237Z,97408.91
2017-10-30T04:34:41.886Z,97412.74
2017-10-30T04:35:13.796Z,97414.02
2017-10-30T04:35:45.498Z,97415.73
2017-10-30T04:36:17.142Z,97413.61
2017-10-30T04:36:48.989Z,97407.29
2017-10-30T04:37:20.667Z,97426.43
2017-10-30T04:37:52.511Z,97412.81
2017-10-30T04:38:24.262Z,97423.02
2017-10-30T04:38:55.976Z,97421.33
2017-10-30T04:39:27.740Z,97420.48
2017-10-30T04:39:59.393Z,97417.08
2017-10-30T04:40:31.042Z,97420.03
2017-10-30T04:41:02.733Z,97415.80
2017-10-30T04:41:34.378Z,97423.45
2017-10-30T04:42:06.021Z,97417.50
2017-10-30T04:42:37.713Z,97421.31
2017-10-30T04:43:09.369Z,97418.37
2017-10-30T04:43:41.009Z,97419.64
2017-10-30T04:44:12.830Z,97417.50
2017-10-30T04:44:44.583Z,97423.44
2017-10-30T04:45:16.235Z,97423.01
2017-10-30T04:45:47.877Z,97426.84
2017-10-30T04:46:19.561Z,97419.19
2017-10-30T04:46:51.209Z,97420.48
2017-10-30T04:47:23.096Z,97420.05
2017-10-30T04:47:54.932Z,97421.31
2017-10-30T04:48:26.686Z,97421.74
2017-10-30T04:48:58.636Z,97420.89
2017-10-30T04:49:30.286Z,97423.03
2017-10-30T04:50:01.933Z,97428.50
2017-10-30T04:50:33.587Z,97421.74
2017-10-30T04:51:05.235Z,97425.52
2017-10-30T04:51:36.877Z,97430.20
2017-10-30T04:52:08.517Z,97419.96
2017-10-30T04:52:40.162Z,97427.55
2017-10-30T04:53:11.809Z,97418.54
2017-10-30T04:53:43.458Z,97416.35
2017-10-30T04:54:15.363Z,97416.74
2017-10-30T04:54:47.211Z,97419.67
2017-10-30T04:55:18.857Z,97422.19
2017-10-30T04:55:50.502Z,97411.09
2017-10-30T04:56:22.148Z,97423.75
2017-10-30T04:56:53.790Z,97418.14
2017-10-30T04:57:25.442Z,97419.81
2017-10-30T04:57:57.085Z,97417.18
2017-10-30T04:58:28.730Z,97426.89
2017-10-30T04:59:00.447Z,97425.56
2017-10-30T04:59:32.098Z,97426.81
2017-10-30T05:00:03.742Z,97427.64
2017-10-30T05:00:35.390Z,97429.30
2017-10-30T05:01:07.033Z,97432.26
2017-10-30T05:01:38.678Z,97424.61
2017-10-30T05:02:10.321Z,97418.22
2017-10-30T05:02:41.969Z,97418.20
2017-10-30T05:03:13.615Z,97421.53
2017-10-30T05:03:45.270Z,97422.81
2017-10-30T05:04:17.158Z,97421.95
2017-10-30T05:04:48.823Z,97415.59
2017-10-30T05:05:20.476Z,97413.01
2017-10-30T05:05:52.117Z,97416.77
2017-10-30T05:06:23.775Z,97413.35
2017-10-30T05:06:55.426Z,97416.67
2017-10-30T05:07:27.299Z,97427.22
2017-10-30T05:07:58.973Z,97416.96
2017-10-30T05:08:30.622Z,97420.86
2017-10-30T05:09:02.273Z,97422.56
2017-10-30T05:09:34.233Z,97421.71
2017-10-30T05:10:05.922Z,97419.14
2017-10-30T05:10:37.570Z,97415.34
2017-10-30T05:11:09.438Z,97422.92
2017-10-30T05:11:41.262Z,97411.00
2017-10-30T05:12:13.030Z,97416.09
2017-10-30T05:12:44.980Z,97416.16
2017-10-30T05:13:16.630Z,97422.54
2017-10-30T05:13:48.274Z,97421.30
2017-10-30T05:14:19.962Z,97426.46
2017-10-30T05:14:51.803Z,97431.13
2017-10-30T05:15:23.449Z,97428.61
2017-10-30T05:15:55.099Z,97426.48
2017-10-30T05:16:26.776Z,97422.22
2017-10-30T05:16:58.671Z,97430.32
2017-10-30T05:17:30.317Z,97423.91
2017-10-30T05:18:01.966Z,97428.61
2017-10-30T05:18:33.963Z,97425.70
2017-10-30T05:19:05.911Z,97424.84
2017-10-30T05:19:37.860Z,97420.96
2017-10-30T05:20:09.509Z,97431.67
2017-10-30T05:20:41.153Z,97426.16
2017-10-30T05:21:12.803Z,97424.08
2017-10-30T05:21:44.450Z,97427.50
2017-10-30T05:22:16.093Z,97427.06
2017-10-30T05:22:47.738Z,97432.62
2017-10-30T05:23:19.381Z,97435.16
2017-10-30T05:23:51.026Z,97441.59
2017-10-30T05:24:22.681Z,97443.80
2017-10-30T05:24:54.330Z,97449.77
2017-10-30T05:25:25.978Z,97439.98
2017-10-30T05:25:57.630Z,97443.39
2017-10-30T05:26:29.468Z,97442.55
2017-10-30T05:27:01.117Z,97445.95
2017-10-30T05:27:32.796Z,97437.88
2017-10-30T05:28:04.446Z,97434.05
2017-10-30T05:28:36.125Z,97433.22
2017-10-30T05:29:07.781Z,97432.83
2017-10-30T05:29:39.609Z,97434.13
2017-10-30T05:30:11.257Z,97438.86
2017-10-30T05:30:42.958Z,97445.27
2017-10-30T05:31:14.609Z,97443.58
2017-10-30T05:31:46.253Z,97443.59
2017-10-30T05:32:17.902Z,97443.64
2017-10-30T05:32:49.550Z,97443.20
2017-10-30T05:33:21.194Z,97433.84
2017-10-30T05:33:52.836Z,97452.16
2017-10-30T05:34:25.014Z,97453.45
2017-10-30T05:34:56.662Z,97450.05
2017-10-30T05:35:28.346Z,97453.91
2017-10-30T05:36:00.217Z,97456.50
2017-10-30T05:36:32.135Z,97454.42
2017-10-30T05:37:03.885Z,97445.93
2017-10-30T05:37:35.760Z,97448.86
2017-10-30T05:38:07.409Z,97453.16
2017-10-30T05:38:39.050Z,97450.64
2017-10-30T05:39:10.692Z,97449.84
2017-10-30T05:39:42.398Z,97457.93
2017-10-30T05:40:14.227Z,97452.39
2017-10-30T05:40:45.993Z,97460.50
2017-10-30T05:41:17.649Z,97462.19
2017-10-30T05:41:49.298Z,97464.80
2017-10-30T05:42:21.118Z,97456.67
2017-10-30T05:42:52.809Z,97463.91
2017-10-30T05:43:24.466Z,97469.05
2017-10-30T05:43:56.109Z,97459.72
2017-10-30T05:44:27.767Z,97471.20
2017-10-30T05:44:59.435Z,97462.27
2017-10-30T05:45:31.384Z,97461.83
2017-10-30T05:46:03.033Z,97461.81
2017-10-30T05:46:34.679Z,97454.12
2017-10-30T05:47:06.378Z,97463.44
2017-10-30T05:47:38.256Z,97462.62
2017-10-30T05:48:10.208Z,97465.18
2017-10-30T05:48:41.857Z,97460.99
2017-10-30T05:49:13.502Z,97460.57
2017-10-30T05:49:45.149Z,97461.92
2017-10-30T05:50:16.798Z,97463.62
2017-10-30T05:50:48.446Z,97469.14
2017-10-30T05:51:20.094Z,97468.31
2017-10-30T05:51:52.009Z,97471.33
2017-10-30T05:52:23.661Z,97466.22
2017-10-30T05:52:55.306Z,97470.48
2017-10-30T05:53:26.954Z,97470.43
2017-10-30T05:53:58.597Z,97470.00
2017-10-30T05:54:30.245Z,97473.40
2017-10-30T05:55:01.930Z,97464.53
2017-10-30T05:55:33.758Z,97463.20
2017-10-30T05:56:05.406Z,97469.17
2017-10-30T05:56:37.059Z,97470.92
2017-10-30T05:57:08.757Z,97470.06
2017-10-30T05:57:40.411Z,97460.35
2017-10-30T05:58:12.058Z,97474.77
2017-10-30T05:58:43.709Z,97471.84
2017-10-30T05:59:15.361Z,97475.70
2017-10-30T05:59:47.013Z,97476.59
2017-10-30T06:00:18.894Z,97474.89
2017-10-30T06:00:50.546Z,97479.59
2017-10-30T06:01:22.197Z,97481.73
2017-10-30T06:01:53.842Z,97483.05
2017-10-30T06:02:25.768Z,97487.73
2017-10-30T06:02:57.612Z,97494.91
2017-10-30T06:03:29.364Z,97500.91
2017-10-30T06:04:01.016Z,97499.21
2017-10-30T06:04:32.669Z,97498.37
2017-10-30T06:05:04.318Z,97498.37
2017-10-30T06:05:36.541Z,97497.53
2017-10-30T06:06:08.376Z,97496.27
2017-10-30T06:06:40.133Z,97497.16
2017-10-30T06:07:11.973Z,97505.66
2017-10-30T06:07:43.666Z,97504.39
2017-10-30T06:08:15.313Z,97509.94
2017-10-30T06:08:46.965Z,97505.30
2017-10-30T06:09:18.609Z,97508.67
2017-10-30T06:09:50.292Z,97507.38
2017-10-30T06:10:21.941Z,97513.77
2017-10-30T06:10:53.586Z,97509.13
2017-10-30T06:11:25.233Z,97512.97
2017-10-30T06:11:56.881Z,97509.98
2017-10-30T06:12:28.525Z,97505.75
2017-10-30T06:13:01.367Z,97519.80